Airfield :
LOGIN :

Register | Disclaimer

   EN    FR    IT 

 










Legend :    VFR   Marginal VFR   IFR   Intensive IFR   Very Intensive IFR
Visi :
Ceiling :
>= 8 km
>= 3000ft
5 to 8 km
1000 to 3000 ft
1500m to 5 km
500 to 1000 ft
800 to 1500m
200 to 500 ft
< 800m
< 200 ft
Symbols :   Thunderstorms  Fog  Heavy snow  Heavy precipitations  Wind > 20 kt
SIGMETs :     Misc.  Thunderstorms  Icing  Turbulence  Mountain Waves  Volcanic Ashes







- Airport Elevation : 53 ft
- IATA code : HAM


EDDH - Hamburg

CURRENT METAR :
  • 172220Z 32010KT 5000 -SHSN FEW005 SCT008CB BKN030 M00/M01 Q1006 RESHSN R88/620295 NOSIG

EXPIRED METARs :
  • 172150Z 34009KT 1700 SHSN FEW004 BKN005CB M00/M01 Q1005 R88/620295 BECMG 9999 NSW SCT015
  • 172120Z 35008KT 2500 SHSN FEW004 BKN007CB M00/M01 Q1004 R88/620295 BECMG 9999 NSW SCT015
  • 172050Z 35009KT 310V030 2500 SHSN FEW004 BKN007CB 00/M01 Q1003 R88/620295 TEMPO 1200 BKN004
  • 172020Z 36009G19KT 310V040 3200 SHSN FEW004 BKN007CB 00/M01 Q1002 R05/690394 R15/590395 TEMPO 30015G25KT 1200 BKN004
  • 171950Z 26008KT 9999 -SHSN FEW005 FEW007CB SCT028 01/M00 Q1000 R05/690394 R15/590395 TEMPO 30015G25KT 1200 SHSN BKN007

TAF AMD TAF EDDH
Valid from the 17 at 18:00 until the 19 at 00:00 UTC


171835Z 1718/1824 28010KT 9999 SCT012 BKN020
PROB40
TEMPO 1718/1723 29015G25KT 1200 SHSN BKN004CB
BECMG 1803/1805 26005KT
PROB30
TEMPO 1811/1814 1500 SHSN SCT008 BKN014CB
No reported NOTAMs for that airfield.



MET'MAP, your aeronautical weather chart ! - Copyright ORBIFLY December 2007 - Disclaimer

ORBIFLY MET'MAP TEAM :

Programming & Development : Alexandra Zaïnal
Concept & Development : Baudouin d'Aumeries
Co-Development & Prog : Marc-Olivier Méhu
Technical & hardware support : Manuel Goepfert

Contact : metmap@orbifly.com




SOURCES & CREDITS :

   NOAA